sensor_id;sensor_type;location;lat;lon;timestamp;temperature;humidity
48936;DHT22;34745;52.276;10.528;2023-02-18T00:00:16;8.10;1.00
48936;DHT22;34745;52.276;10.528;2023-02-18T00:02:44;8.20;1.00
48936;DHT22;34745;52.276;10.528;2023-02-18T00:05:12;8.30;1.00
48936;DHT22;34745;52.276;10.528;2023-02-18T00:07:40;8.30;1.00
48936;DHT22;34745;52.276;10.528;2023-02-18T00:10:12;8.30;1.00
48936;DHT22;34745;52.276;10.528;2023-02-18T00:12:39;8.20;1.00
48936;DHT22;34745;52.276;10.528;2023-02-18T00:15:07;8.20;1.00
48936;DHT22;34745;52.276;10.528;2023-02-18T00:17:35;8.00;1.00
48936;DHT22;34745;52.276;10.528;2023-02-18T00:20:03;7.70;1.00
48936;DHT22;34745;52.276;10.528;2023-02-18T00:22:30;7.70;1.00
48936;DHT22;34745;52.276;10.528;2023-02-18T00:24:57;7.60;1.00
48936;DHT22;34745;52.276;10.528;2023-02-18T00:27:25;7.60;1.00
48936;DHT22;34745;52.276;10.528;2023-02-18T00:29:52;7.50;1.00
48936;DHT22;34745;52.276;10.528;2023-02-18T00:32:19;7.50;1.00
48936;DHT22;34745;52.276;10.528;2023-02-18T00:34:46;7.50;1.00
48936;DHT22;34745;52.276;10.528;2023-02-18T00:37:13;7.50;1.00
48936;DHT22;34745;52.276;10.528;2023-02-18T00:39:41;7.40;1.00
48936;DHT22;34745;52.276;10.528;2023-02-18T00:42:07;7.50;1.00
48936;DHT22;34745;52.276;10.528;2023-02-18T00:44:36;7.50;1.00
48936;DHT22;34745;52.276;10.528;2023-02-18T00:47:03;7.50;1.00
48936;DHT22;34745;52.276;10.528;2023-02-18T00:49:29;7.50;1.00
48936;DHT22;34745;52.276;10.528;2023-02-18T00:51:57;7.50;1.00
48936;DHT22;34745;52.276;10.528;2023-02-18T00:54:24;7.50;1.00
48936;DHT22;34745;52.276;10.528;2023-02-18T00:56:51;7.40;1.00
48936;DHT22;34745;52.276;10.528;2023-02-18T00:59:18;7.40;1.00
48936;DHT22;34745;52.276;10.528;2023-02-18T01:01:46;7.40;1.00
48936;DHT22;34745;52.276;10.528;2023-02-18T01:04:14;7.40;1.00
48936;DHT22;34745;52.276;10.528;2023-02-18T01:06:41;7.40;1.00
48936;DHT22;34745;52.276;10.528;2023-02-18T01:09:09;7.40;1.00
48936;DHT22;34745;52.276;10.528;2023-02-18T01:11:35;7.40;1.00
48936;DHT22;34745;52.276;10.528;2023-02-18T01:14:03;7.40;1.00
48936;DHT22;34745;52.276;10.528;2023-02-18T01:16:30;7.40;1.00
48936;DHT22;34745;52.276;10.528;2023-02-18T01:18:58;7.40;1.00
48936;DHT22;34745;52.276;10.528;2023-02-18T01:21:25;7.40;1.00
48936;DHT22;34745;52.276;10.528;2023-02-18T01:23:52;7.40;1.00
48936;DHT22;34745;52.276;10.528;2023-02-18T01:26:19;7.40;1.00
48936;DHT22;34745;52.276;10.528;2023-02-18T01:28:47;7.40;1.00
48936;DHT22;34745;52.276;10.528;2023-02-18T01:31:14;7.50;1.00
48936;DHT22;34745;52.276;10.528;2023-02-18T01:33:41;7.50;1.00
48936;DHT22;34745;52.276;10.528;2023-02-18T01:36:10;7.60;1.00
48936;DHT22;34745;52.276;10.528;2023-02-18T01:38:38;7.60;1.00
48936;DHT22;34745;52.276;10.528;2023-02-18T01:41:05;7.60;1.00
48936;DHT22;34745;52.276;10.528;2023-02-18T01:43:33;7.70;1.00
48936;DHT22;34745;52.276;10.528;2023-02-18T01:46:15;7.70;1.00
48936;DHT22;34745;52.276;10.528;2023-02-18T01:48:47;7.70;1.00
48936;DHT22;34745;52.276;10.528;2023-02-18T01:51:18;7.70;1.00
48936;DHT22;34745;52.276;10.528;2023-02-18T01:53:51;7.80;1.00
48936;DHT22;34745;52.276;10.528;2023-02-18T01:56:23;7.80;1.00
48936;DHT22;34745;52.276;10.528;2023-02-18T01:58:53;7.80;1.00
48936;DHT22;34745;52.276;10.528;2023-02-18T02:01:22;7.80;1.00
48936;DHT22;34745;52.276;10.528;2023-02-18T02:03:49;7.80;1.00
48936;DHT22;34745;52.276;10.528;2023-02-18T02:06:20;7.80;1.00
48936;DHT22;34745;52.276;10.528;2023-02-18T02:08:49;7.80;1.00
48936;DHT22;34745;52.276;10.528;2023-02-18T02:11:24;7.90;1.00
48936;DHT22;34745;52.276;10.528;2023-02-18T02:14:09;7.90;1.00
48936;DHT22;34745;52.276;10.528;2023-02-18T02:16:43;7.90;1.00
48936;DHT22;34745;52.276;10.528;2023-02-18T02:19:48;7.90;1.00
48936;DHT22;34745;52.276;10.528;2023-02-18T02:22:37;7.90;1.00
48936;DHT22;34745;52.276;10.528;2023-02-18T02:25:20;7.90;1.00
48936;DHT22;34745;52.276;10.528;2023-02-18T02:28:18;7.80;1.00
48936;DHT22;34745;52.276;10.528;2023-02-18T02:36:50;7.90;1.00
48936;DHT22;34745;52.276;10.528;2023-02-18T02:39:25;7.80;1.00
48936;DHT22;34745;52.276;10.528;2023-02-18T02:42:04;7.90;1.00
48936;DHT22;34745;52.276;10.528;2023-02-18T02:44:39;7.90;1.00
48936;DHT22;34745;52.276;10.528;2023-02-18T02:47:13;7.90;1.00
48936;DHT22;34745;52.276;10.528;2023-02-18T02:49:48;7.90;1.00
48936;DHT22;34745;52.276;10.528;2023-02-18T02:52:25;7.90;1.00
48936;DHT22;34745;52.276;10.528;2023-02-18T02:54:54;8.00;1.00
48936;DHT22;34745;52.276;10.528;2023-02-18T02:57:42;8.00;1.00
48936;DHT22;34745;52.276;10.528;2023-02-18T03:00:11;7.90;1.00
48936;DHT22;34745;52.276;10.528;2023-02-18T03:05:50;7.90;1.00
48936;DHT22;34745;52.276;10.528;2023-02-18T03:08:29;7.90;1.00
48936;DHT22;34745;52.276;10.528;2023-02-18T03:11:05;7.90;1.00
48936;DHT22;34745;52.276;10.528;2023-02-18T03:13:46;7.90;1.00
48936;DHT22;34745;52.276;10.528;2023-02-18T03:16:23;7.90;1.00
48936;DHT22;34745;52.276;10.528;2023-02-18T03:18:58;7.90;1.00
48936;DHT22;34745;52.276;10.528;2023-02-18T03:21:29;7.90;1.00
48936;DHT22;34745;52.276;10.528;2023-02-18T03:24:02;7.90;1.00
48936;DHT22;34745;52.276;10.528;2023-02-18T03:26:32;7.90;1.00
48936;DHT22;34745;52.276;10.528;2023-02-18T03:29:02;7.90;1.00
48936;DHT22;34745;52.276;10.528;2023-02-18T03:31:31;7.90;1.00
48936;DHT22;34745;52.276;10.528;2023-02-18T03:34:02;7.90;1.00
48936;DHT22;34745;52.276;10.528;2023-02-18T03:36:31;7.90;1.00
48936;DHT22;34745;52.276;10.528;2023-02-18T03:39:04;7.90;1.00
48936;DHT22;34745;52.276;10.528;2023-02-18T03:41:33;7.90;1.00
48936;DHT22;34745;52.276;10.528;2023-02-18T03:44:05;7.80;1.00
48936;DHT22;34745;52.276;10.528;2023-02-18T03:46:32;7.90;1.00
48936;DHT22;34745;52.276;10.528;2023-02-18T03:49:00;7.90;1.00
48936;DHT22;34745;52.276;10.528;2023-02-18T03:51:27;7.90;1.00
48936;DHT22;34745;52.276;10.528;2023-02-18T03:53:54;7.90;1.00
48936;DHT22;34745;52.276;10.528;2023-02-18T03:56:22;7.90;1.00
48936;DHT22;34745;52.276;10.528;2023-02-18T03:58:50;7.90;1.00
48936;DHT22;34745;52.276;10.528;2023-02-18T04:01:16;7.90;1.00
48936;DHT22;34745;52.276;10.528;2023-02-18T04:03:44;7.90;1.00
48936;DHT22;34745;52.276;10.528;2023-02-18T04:06:11;7.90;1.00
48936;DHT22;34745;52.276;10.528;2023-02-18T04:08:38;8.00;1.00
48936;DHT22;34745;52.276;10.528;2023-02-18T04:11:05;8.00;1.00
48936;DHT22;34745;52.276;10.528;2023-02-18T04:13:33;8.00;1.00
48936;DHT22;34745;52.276;10.528;2023-02-18T04:16:00;8.00;1.00
48936;DHT22;34745;52.276;10.528;2023-02-18T04:18:27;8.10;1.00
48936;DHT22;34745;52.276;10.528;2023-02-18T04:20:54;8.00;1.00
48936;DHT22;34745;52.276;10.528;2023-02-18T04:23:21;8.10;1.00
48936;DHT22;34745;52.276;10.528;2023-02-18T04:25:48;8.20;1.00
48936;DHT22;34745;52.276;10.528;2023-02-18T04:28:16;8.20;1.00
48936;DHT22;34745;52.276;10.528;2023-02-18T04:30:45;8.20;1.00
48936;DHT22;34745;52.276;10.528;2023-02-18T04:33:13;8.20;1.00
48936;DHT22;34745;52.276;10.528;2023-02-18T04:35:40;8.20;1.00
48936;DHT22;34745;52.276;10.528;2023-02-18T04:38:08;8.20;1.00
48936;DHT22;34745;52.276;10.528;2023-02-18T04:40:36;8.20;1.00
48936;DHT22;34745;52.276;10.528;2023-02-18T04:43:03;8.20;1.00
48936;DHT22;34745;52.276;10.528;2023-02-18T04:45:30;8.20;1.00
48936;DHT22;34745;52.276;10.528;2023-02-18T04:47:58;8.20;1.00
48936;DHT22;34745;52.276;10.528;2023-02-18T04:50:25;8.20;7.50
48936;DHT22;34745;52.276;10.528;2023-02-18T04:52:53;8.20;19.10
48936;DHT22;34745;52.276;10.528;2023-02-18T04:55:20;8.10;29.20
48936;DHT22;34745;52.276;10.528;2023-02-18T04:57:47;8.10;40.00
48936;DHT22;34745;52.276;10.528;2023-02-18T05:00:16;8.20;74.10
48936;DHT22;34745;52.276;10.528;2023-02-18T05:02:44;8.10;89.20
48936;DHT22;34745;52.276;10.528;2023-02-18T05:05:13;8.00;99.90
48936;DHT22;34745;52.276;10.528;2023-02-18T05:07:40;8.00;99.90
48936;DHT22;34745;52.276;10.528;2023-02-18T05:10:09;8.00;99.90
48936;DHT22;34745;52.276;10.528;2023-02-18T05:12:36;8.00;99.90
48936;DHT22;34745;52.276;10.528;2023-02-18T05:15:04;7.90;99.90
48936;DHT22;34745;52.276;10.528;2023-02-18T05:17:31;7.90;99.90
48936;DHT22;34745;52.276;10.528;2023-02-18T05:19:58;7.80;99.90
48936;DHT22;34745;52.276;10.528;2023-02-18T05:22:27;7.80;99.90
48936;DHT22;34745;52.276;10.528;2023-02-18T05:24:54;7.70;99.90
48936;DHT22;34745;52.276;10.528;2023-02-18T05:27:21;7.70;99.90
48936;DHT22;34745;52.276;10.528;2023-02-18T05:29:48;7.70;99.90
48936;DHT22;34745;52.276;10.528;2023-02-18T05:32:15;7.60;99.90
48936;DHT22;34745;52.276;10.528;2023-02-18T05:34:42;7.60;99.90
48936;DHT22;34745;52.276;10.528;2023-02-18T05:37:09;7.60;99.90
48936;DHT22;34745;52.276;10.528;2023-02-18T05:39:37;7.50;99.90
48936;DHT22;34745;52.276;10.528;2023-02-18T05:42:05;7.50;99.90
48936;DHT22;34745;52.276;10.528;2023-02-18T05:44:32;7.50;99.90
48936;DHT22;34745;52.276;10.528;2023-02-18T05:47:01;7.50;99.90
48936;DHT22;34745;52.276;10.528;2023-02-18T05:49:29;7.50;99.90
48936;DHT22;34745;52.276;10.528;2023-02-18T05:51:57;7.50;99.90
48936;DHT22;34745;52.276;10.528;2023-02-18T05:54:24;7.50;99.90
48936;DHT22;34745;52.276;10.528;2023-02-18T05:56:53;7.50;99.90
48936;DHT22;34745;52.276;10.528;2023-02-18T05:59:21;7.50;99.90
48936;DHT22;34745;52.276;10.528;2023-02-18T06:01:48;7.50;99.90
48936;DHT22;34745;52.276;10.528;2023-02-18T06:04:15;7.50;99.90
48936;DHT22;34745;52.276;10.528;2023-02-18T06:06:42;7.40;99.90
48936;DHT22;34745;52.276;10.528;2023-02-18T06:09:10;7.40;99.90
48936;DHT22;34745;52.276;10.528;2023-02-18T06:11:37;7.50;99.90
48936;DHT22;34745;52.276;10.528;2023-02-18T06:14:05;7.50;99.90
48936;DHT22;34745;52.276;10.528;2023-02-18T06:16:33;7.50;99.90
48936;DHT22;34745;52.276;10.528;2023-02-18T06:19:00;7.40;99.90
48936;DHT22;34745;52.276;10.528;2023-02-18T06:21:27;7.40;99.90
48936;DHT22;34745;52.276;10.528;2023-02-18T06:23:54;7.40;99.90
48936;DHT22;34745;52.276;10.528;2023-02-18T06:26:21;7.40;99.90
48936;DHT22;34745;52.276;10.528;2023-02-18T06:28:48;7.50;99.90
48936;DHT22;34745;52.276;10.528;2023-02-18T06:31:16;7.50;99.90
48936;DHT22;34745;52.276;10.528;2023-02-18T06:33:43;7.50;99.90
48936;DHT22;34745;52.276;10.528;2023-02-18T06:36:11;7.50;99.90
48936;DHT22;34745;52.276;10.528;2023-02-18T06:38:39;7.50;99.90
48936;DHT22;34745;52.276;10.528;2023-02-18T06:41:06;7.60;99.90
48936;DHT22;34745;52.276;10.528;2023-02-18T06:43:33;7.50;99.90
48936;DHT22;34745;52.276;10.528;2023-02-18T06:46:01;7.50;99.90
48936;DHT22;34745;52.276;10.528;2023-02-18T06:48:29;7.50;99.90
48936;DHT22;34745;52.276;10.528;2023-02-18T06:50:56;7.40;99.90
48936;DHT22;34745;52.276;10.528;2023-02-18T06:53:23;7.40;99.90
48936;DHT22;34745;52.276;10.528;2023-02-18T06:55:51;7.40;99.90
48936;DHT22;34745;52.276;10.528;2023-02-18T06:58:18;7.40;99.90
48936;DHT22;34745;52.276;10.528;2023-02-18T07:00:45;7.40;99.90
48936;DHT22;34745;52.276;10.528;2023-02-18T07:03:13;7.50;99.90
48936;DHT22;34745;52.276;10.528;2023-02-18T07:05:45;7.50;99.90
48936;DHT22;34745;52.276;10.528;2023-02-18T07:08:12;7.50;99.90
48936;DHT22;34745;52.276;10.528;2023-02-18T07:10:39;7.50;99.90
48936;DHT22;34745;52.276;10.528;2023-02-18T07:13:06;7.50;99.90
48936;DHT22;34745;52.276;10.528;2023-02-18T07:15:34;7.50;99.90
48936;DHT22;34745;52.276;10.528;2023-02-18T07:18:01;7.60;99.90
48936;DHT22;34745;52.276;10.528;2023-02-18T07:20:28;7.50;99.90
48936;DHT22;34745;52.276;10.528;2023-02-18T07:22:56;7.50;99.90
48936;DHT22;34745;52.276;10.528;2023-02-18T07:25:23;7.50;99.90
48936;DHT22;34745;52.276;10.528;2023-02-18T07:27:51;7.50;99.90
48936;DHT22;34745;52.276;10.528;2023-02-18T07:30:18;7.50;99.90
48936;DHT22;34745;52.276;10.528;2023-02-18T07:32:46;7.60;99.90
48936;DHT22;34745;52.276;10.528;2023-02-18T07:35:14;7.60;99.90
48936;DHT22;34745;52.276;10.528;2023-02-18T07:37:43;7.70;99.90
48936;DHT22;34745;52.276;10.528;2023-02-18T07:40:14;7.70;99.90
48936;DHT22;34745;52.276;10.528;2023-02-18T07:42:41;7.60;99.90
48936;DHT22;34745;52.276;10.528;2023-02-18T07:45:09;7.70;99.90
48936;DHT22;34745;52.276;10.528;2023-02-18T07:47:36;7.80;99.90
48936;DHT22;34745;52.276;10.528;2023-02-18T07:50:05;7.80;99.90
48936;DHT22;34745;52.276;10.528;2023-02-18T07:52:32;7.80;99.90
48936;DHT22;34745;52.276;10.528;2023-02-18T07:55:00;7.80;99.90
48936;DHT22;34745;52.276;10.528;2023-02-18T07:57:28;7.90;99.90
48936;DHT22;34745;52.276;10.528;2023-02-18T07:59:55;7.90;99.90
48936;DHT22;34745;52.276;10.528;2023-02-18T08:02:23;7.90;99.90
48936;DHT22;34745;52.276;10.528;2023-02-18T08:04:51;8.00;99.90
48936;DHT22;34745;52.276;10.528;2023-02-18T08:07:19;8.00;99.90
48936;DHT22;34745;52.276;10.528;2023-02-18T08:09:48;8.10;99.90
48936;DHT22;34745;52.276;10.528;2023-02-18T08:12:16;8.10;99.90
48936;DHT22;34745;52.276;10.528;2023-02-18T08:14:45;8.10;99.90
48936;DHT22;34745;52.276;10.528;2023-02-18T08:17:11;8.20;99.90
48936;DHT22;34745;52.276;10.528;2023-02-18T08:19:39;8.20;99.90
48936;DHT22;34745;52.276;10.528;2023-02-18T08:22:06;8.20;99.90
48936;DHT22;34745;52.276;10.528;2023-02-18T08:24:33;8.30;99.90
48936;DHT22;34745;52.276;10.528;2023-02-18T08:27:00;8.30;99.90
48936;DHT22;34745;52.276;10.528;2023-02-18T08:29:27;8.30;99.90
48936;DHT22;34745;52.276;10.528;2023-02-18T08:31:56;8.40;99.90
48936;DHT22;34745;52.276;10.528;2023-02-18T08:34:24;8.40;99.90
48936;DHT22;34745;52.276;10.528;2023-02-18T08:36:51;8.40;99.90
48936;DHT22;34745;52.276;10.528;2023-02-18T08:39:18;8.40;99.90
48936;DHT22;34745;52.276;10.528;2023-02-18T08:41:45;8.50;99.90
48936;DHT22;34745;52.276;10.528;2023-02-18T08:44:12;8.60;99.90
48936;DHT22;34745;52.276;10.528;2023-02-18T08:46:39;8.70;99.90
48936;DHT22;34745;52.276;10.528;2023-02-18T08:49:09;8.80;99.90
48936;DHT22;34745;52.276;10.528;2023-02-18T08:51:36;8.80;99.90
48936;DHT22;34745;52.276;10.528;2023-02-18T08:54:03;8.90;99.90
48936;DHT22;34745;52.276;10.528;2023-02-18T08:56:30;9.00;99.90
48936;DHT22;34745;52.276;10.528;2023-02-18T08:58:58;9.10;99.90
48936;DHT22;34745;52.276;10.528;2023-02-18T09:01:26;9.20;99.90
48936;DHT22;34745;52.276;10.528;2023-02-18T09:03:53;9.30;99.90
48936;DHT22;34745;52.276;10.528;2023-02-18T09:06:21;9.40;99.90
48936;DHT22;34745;52.276;10.528;2023-02-18T09:08:48;9.40;99.90
48936;DHT22;34745;52.276;10.528;2023-02-18T09:11:17;9.50;99.90
48936;DHT22;34745;52.276;10.528;2023-02-18T09:13:45;9.50;99.90
48936;DHT22;34745;52.276;10.528;2023-02-18T09:16:14;9.60;99.90
48936;DHT22;34745;52.276;10.528;2023-02-18T09:18:45;9.60;99.90
48936;DHT22;34745;52.276;10.528;2023-02-18T09:21:13;9.70;99.90
48936;DHT22;34745;52.276;10.528;2023-02-18T09:23:43;9.70;99.90
48936;DHT22;34745;52.276;10.528;2023-02-18T09:26:13;9.70;99.90
48936;DHT22;34745;52.276;10.528;2023-02-18T09:28:40;9.80;99.90
48936;DHT22;34745;52.276;10.528;2023-02-18T09:31:08;9.90;99.90
48936;DHT22;34745;52.276;10.528;2023-02-18T09:33:39;10.00;99.90
48936;DHT22;34745;52.276;10.528;2023-02-18T09:36:07;10.10;99.90
48936;DHT22;34745;52.276;10.528;2023-02-18T09:38:34;10.20;99.90
48936;DHT22;34745;52.276;10.528;2023-02-18T09:41:05;10.30;99.90
48936;DHT22;34745;52.276;10.528;2023-02-18T09:43:37;10.40;99.90
48936;DHT22;34745;52.276;10.528;2023-02-18T09:46:13;10.50;99.90
48936;DHT22;34745;52.276;10.528;2023-02-18T09:48:46;10.60;99.90
48936;DHT22;34745;52.276;10.528;2023-02-18T09:51:14;10.70;99.90
48936;DHT22;34745;52.276;10.528;2023-02-18T09:53:42;10.80;99.90
48936;DHT22;34745;52.276;10.528;2023-02-18T09:56:20;10.80;99.90
48936;DHT22;34745;52.276;10.528;2023-02-18T09:58:48;10.90;99.90
48936;DHT22;34745;52.276;10.528;2023-02-18T10:01:26;11.00;99.90
48936;DHT22;34745;52.276;10.528;2023-02-18T10:03:57;11.00;99.90
48936;DHT22;34745;52.276;10.528;2023-02-18T10:06:29;11.00;99.90
48936;DHT22;34745;52.276;10.528;2023-02-18T10:09:00;11.00;99.90
48936;DHT22;34745;52.276;10.528;2023-02-18T10:11:31;11.10;99.90
48936;DHT22;34745;52.276;10.528;2023-02-18T10:14:00;11.10;99.90
48936;DHT22;34745;52.276;10.528;2023-02-18T10:16:28;11.10;99.90
48936;DHT22;34745;52.276;10.528;2023-02-18T10:18:57;11.10;99.90
48936;DHT22;34745;52.276;10.528;2023-02-18T10:21:26;11.10;99.90
48936;DHT22;34745;52.276;10.528;2023-02-18T10:23:59;11.10;99.90
48936;DHT22;34745;52.276;10.528;2023-02-18T10:26:30;11.00;99.90
48936;DHT22;34745;52.276;10.528;2023-02-18T10:28:58;11.10;99.90
48936;DHT22;34745;52.276;10.528;2023-02-18T10:31:30;11.10;99.90
48936;DHT22;34745;52.276;10.528;2023-02-18T10:34:05;11.20;99.90
48936;DHT22;34745;52.276;10.528;2023-02-18T10:36:35;11.30;99.90
48936;DHT22;34745;52.276;10.528;2023-02-18T10:39:23;11.20;99.90
48936;DHT22;34745;52.276;10.528;2023-02-18T10:42:07;11.20;99.90
48936;DHT22;34745;52.276;10.528;2023-02-18T10:44:45;11.20;99.90
48936;DHT22;34745;52.276;10.528;2023-02-18T10:47:19;11.20;99.90
48936;DHT22;34745;52.276;10.528;2023-02-18T10:49:58;11.20;99.90
48936;DHT22;34745;52.276;10.528;2023-02-18T10:52:28;11.30;99.90
48936;DHT22;34745;52.276;10.528;2023-02-18T10:55:01;11.30;99.90
48936;DHT22;34745;52.276;10.528;2023-02-18T10:57:31;11.30;99.90
48936;DHT22;34745;52.276;10.528;2023-02-18T11:00:14;11.40;99.90
48936;DHT22;34745;52.276;10.528;2023-02-18T11:02:41;11.40;99.90
48936;DHT22;34745;52.276;10.528;2023-02-18T11:05:19;11.40;99.90
48936;DHT22;34745;52.276;10.528;2023-02-18T11:07:50;11.50;99.90
48936;DHT22;34745;52.276;10.528;2023-02-18T11:10:21;11.30;99.90
48936;DHT22;34745;52.276;10.528;2023-02-18T11:12:55;11.30;99.90
48936;DHT22;34745;52.276;10.528;2023-02-18T11:15:25;11.20;99.90
48936;DHT22;34745;52.276;10.528;2023-02-18T11:17:54;11.30;99.90
48936;DHT22;34745;52.276;10.528;2023-02-18T11:20:29;11.20;99.90
48936;DHT22;34745;52.276;10.528;2023-02-18T11:22:58;11.10;99.90
48936;DHT22;34745;52.276;10.528;2023-02-18T11:25:27;11.10;99.90
48936;DHT22;34745;52.276;10.528;2023-02-18T11:28:02;11.10;99.90
48936;DHT22;34745;52.276;10.528;2023-02-18T11:30:33;11.10;99.90
48936;DHT22;34745;52.276;10.528;2023-02-18T11:33:05;11.00;99.90
48936;DHT22;34745;52.276;10.528;2023-02-18T11:35:33;11.00;99.90
48936;DHT22;34745;52.276;10.528;2023-02-18T11:38:03;10.90;99.90
48936;DHT22;34745;52.276;10.528;2023-02-18T11:40:40;10.90;99.90
48936;DHT22;34745;52.276;10.528;2023-02-18T11:43:12;10.90;99.90
48936;DHT22;34745;52.276;10.528;2023-02-18T11:45:40;10.80;99.90
48936;DHT22;34745;52.276;10.528;2023-02-18T11:48:14;10.80;99.90
48936;DHT22;34745;52.276;10.528;2023-02-18T11:50:42;10.80;99.90
48936;DHT22;34745;52.276;10.528;2023-02-18T11:53:26;10.80;99.90
48936;DHT22;34745;52.276;10.528;2023-02-18T11:55:55;10.80;99.90
48936;DHT22;34745;52.276;10.528;2023-02-18T11:58:23;10.70;99.90
48936;DHT22;34745;52.276;10.528;2023-02-18T12:00:53;10.70;99.90
48936;DHT22;34745;52.276;10.528;2023-02-18T12:03:27;10.80;99.90
48936;DHT22;34745;52.276;10.528;2023-02-18T12:05:59;10.80;99.90
48936;DHT22;34745;52.276;10.528;2023-02-18T12:08:27;10.80;99.90
48936;DHT22;34745;52.276;10.528;2023-02-18T12:11:01;10.80;99.90
48936;DHT22;34745;52.276;10.528;2023-02-18T12:13:34;10.70;99.90
48936;DHT22;34745;52.276;10.528;2023-02-18T12:16:10;10.60;99.90
48936;DHT22;34745;52.276;10.528;2023-02-18T12:18:59;10.90;99.90
48936;DHT22;34745;52.276;10.528;2023-02-18T12:21:42;10.90;99.90
48936;DHT22;34745;52.276;10.528;2023-02-18T12:24:24;10.90;99.90
48936;DHT22;34745;52.276;10.528;2023-02-18T12:27:02;11.00;99.90
48936;DHT22;34745;52.276;10.528;2023-02-18T12:29:43;10.90;99.90
48936;DHT22;34745;52.276;10.528;2023-02-18T12:32:20;10.70;99.90
48936;DHT22;34745;52.276;10.528;2023-02-18T12:35:00;10.70;99.90
48936;DHT22;34745;52.276;10.528;2023-02-18T12:37:48;10.70;99.90
48936;DHT22;34745;52.276;10.528;2023-02-18T12:40:32;10.70;99.90
48936;DHT22;34745;52.276;10.528;2023-02-18T12:43:09;10.80;99.90
48936;DHT22;34745;52.276;10.528;2023-02-18T12:46:08;10.70;99.90
48936;DHT22;34745;52.276;10.528;2023-02-18T12:49:05;10.70;99.90
48936;DHT22;34745;52.276;10.528;2023-02-18T12:51:44;10.40;99.90
48936;DHT22;34745;52.276;10.528;2023-02-18T12:54:40;10.40;99.90
48936;DHT22;34745;52.276;10.528;2023-02-18T12:57:28;10.30;99.90
48936;DHT22;34745;52.276;10.528;2023-02-18T13:00:30;10.30;99.90
48936;DHT22;34745;52.276;10.528;2023-02-18T13:06:07;10.20;99.90
48936;DHT22;34745;52.276;10.528;2023-02-18T13:08:47;10.20;99.90
48936;DHT22;34745;52.276;10.528;2023-02-18T13:11:26;10.10;99.90
48936;DHT22;34745;52.276;10.528;2023-02-18T13:14:01;10.00;99.90
48936;DHT22;34745;52.276;10.528;2023-02-18T13:16:30;10.00;99.90
48936;DHT22;34745;52.276;10.528;2023-02-18T13:19:01;10.00;99.90
48936;DHT22;34745;52.276;10.528;2023-02-18T13:21:33;10.00;99.90
48936;DHT22;34745;52.276;10.528;2023-02-18T13:24:10;10.10;99.90
48936;DHT22;34745;52.276;10.528;2023-02-18T13:26:41;10.10;99.90
48936;DHT22;34745;52.276;10.528;2023-02-18T13:29:19;10.20;99.90
48936;DHT22;34745;52.276;10.528;2023-02-18T13:31:59;10.30;99.90
48936;DHT22;34745;52.276;10.528;2023-02-18T13:34:31;10.30;99.90
48936;DHT22;34745;52.276;10.528;2023-02-18T13:37:07;10.30;99.90
48936;DHT22;34745;52.276;10.528;2023-02-18T13:39:38;10.30;99.90
48936;DHT22;34745;52.276;10.528;2023-02-18T13:42:24;10.30;99.90
48936;DHT22;34745;52.276;10.528;2023-02-18T13:45:26;10.30;99.90
48936;DHT22;34745;52.276;10.528;2023-02-18T13:47:54;10.30;99.90
48936;DHT22;34745;52.276;10.528;2023-02-18T13:50:39;10.30;99.90
48936;DHT22;34745;52.276;10.528;2023-02-18T13:53:20;10.40;99.90
48936;DHT22;34745;52.276;10.528;2023-02-18T13:56:00;10.30;99.90
48936;DHT22;34745;52.276;10.528;2023-02-18T13:58:36;10.30;99.90
48936;DHT22;34745;52.276;10.528;2023-02-18T14:01:10;10.20;99.90
48936;DHT22;34745;52.276;10.528;2023-02-18T14:03:59;10.20;99.90
48936;DHT22;34745;52.276;10.528;2023-02-18T14:06:29;10.20;99.90
48936;DHT22;34745;52.276;10.528;2023-02-18T14:12:35;10.20;99.90
48936;DHT22;34745;52.276;10.528;2023-02-18T14:15:49;10.20;99.90
48936;DHT22;34745;52.276;10.528;2023-02-18T14:18:32;10.20;99.90
48936;DHT22;34745;52.276;10.528;2023-02-18T14:23:59;10.20;99.90
48936;DHT22;34745;52.276;10.528;2023-02-18T14:26:30;10.20;99.90
48936;DHT22;34745;52.276;10.528;2023-02-18T14:29:04;10.20;99.90
48936;DHT22;34745;52.276;10.528;2023-02-18T14:31:43;10.20;99.90
48936;DHT22;34745;52.276;10.528;2023-02-18T14:34:29;10.10;99.90
48936;DHT22;34745;52.276;10.528;2023-02-18T14:37:10;10.00;99.90
48936;DHT22;34745;52.276;10.528;2023-02-18T14:39:48;9.90;99.90
48936;DHT22;34745;52.276;10.528;2023-02-18T14:42:26;10.00;99.90
48936;DHT22;34745;52.276;10.528;2023-02-18T14:45:07;10.00;99.90
48936;DHT22;34745;52.276;10.528;2023-02-18T14:47:51;10.10;99.90
48936;DHT22;34745;52.276;10.528;2023-02-18T14:50:22;10.10;99.90
48936;DHT22;34745;52.276;10.528;2023-02-18T14:52:52;10.20;99.90
48936;DHT22;34745;52.276;10.528;2023-02-18T14:55:23;10.20;99.90
48936;DHT22;34745;52.276;10.528;2023-02-18T14:57:54;10.20;99.90
48936;DHT22;34745;52.276;10.528;2023-02-18T15:00:25;10.20;99.90
48936;DHT22;34745;52.276;10.528;2023-02-18T15:02:54;10.20;99.90
48936;DHT22;34745;52.276;10.528;2023-02-18T15:05:23;10.10;99.90
48936;DHT22;34745;52.276;10.528;2023-02-18T15:07:58;10.10;99.90
48936;DHT22;34745;52.276;10.528;2023-02-18T15:10:34;10.10;99.90
48936;DHT22;34745;52.276;10.528;2023-02-18T15:13:06;10.10;99.90
48936;DHT22;34745;52.276;10.528;2023-02-18T15:15:34;10.10;99.90
48936;DHT22;34745;52.276;10.528;2023-02-18T15:18:02;10.00;99.90
48936;DHT22;34745;52.276;10.528;2023-02-18T15:20:33;10.00;99.90
48936;DHT22;34745;52.276;10.528;2023-02-18T15:23:00;10.00;99.90
48936;DHT22;34745;52.276;10.528;2023-02-18T15:25:28;10.00;99.90
48936;DHT22;34745;52.276;10.528;2023-02-18T15:27:55;10.00;99.90
48936;DHT22;34745;52.276;10.528;2023-02-18T15:30:26;10.10;99.90
48936;DHT22;34745;52.276;10.528;2023-02-18T15:32:57;10.10;99.90
48936;DHT22;34745;52.276;10.528;2023-02-18T15:35:26;10.20;99.90
48936;DHT22;34745;52.276;10.528;2023-02-18T15:37:57;10.20;99.90
48936;DHT22;34745;52.276;10.528;2023-02-18T15:40:27;10.30;99.90
48936;DHT22;34745;52.276;10.528;2023-02-18T15:42:58;10.40;99.90
48936;DHT22;34745;52.276;10.528;2023-02-18T15:45:32;10.40;99.90
48936;DHT22;34745;52.276;10.528;2023-02-18T15:48:00;10.40;99.90
48936;DHT22;34745;52.276;10.528;2023-02-18T15:50:30;10.40;99.90
48936;DHT22;34745;52.276;10.528;2023-02-18T15:53:04;10.40;99.90
48936;DHT22;34745;52.276;10.528;2023-02-18T15:55:34;10.40;99.90
48936;DHT22;34745;52.276;10.528;2023-02-18T15:58:04;10.50;99.90
48936;DHT22;34745;52.276;10.528;2023-02-18T16:00:39;10.40;99.90
48936;DHT22;34745;52.276;10.528;2023-02-18T16:03:11;10.50;99.90
48936;DHT22;34745;52.276;10.528;2023-02-18T16:05:39;10.50;99.90
48936;DHT22;34745;52.276;10.528;2023-02-18T16:08:13;10.50;99.90
48936;DHT22;34745;52.276;10.528;2023-02-18T16:10:44;10.40;99.90
48936;DHT22;34745;52.276;10.528;2023-02-18T16:13:15;10.50;99.90